Terminal Aerodrome Forecast
Issued by NWS Sterling, VA

Current Version | Previous Version | Graphics & Text | Print | Product List | Glossary On
Versions: 1 2 3 4 5 6 7 8 9 10 11 12 13 14
000
FTUS41 KLWX 222300
TAFMRB
TAF
KMRB 222320Z 2300/2324 17006KT P6SM SCT050
     FM230200 18007KT P6SM SCT250
     FM231000 19004KT 3SM BR SCT250
     FM231300 22004KT P6SM SCT250
     FM231500 22006KT P6SM BKN090
     FM232300 30007KT P6SM BKN050=

USA.gov is the U.S. government's official web portal to all federal, state and local government web resources and services.